Time;durP1;ratioP1;P1;durP2;ratioP2;P2;SDS_P1;SDS_P2;PMS_P1;PMS_P2;Temp;Humidity;BMP_temperature;BMP_pressure;BME280_temperature;BME280_humidity;BME280_pressure;Samples;Min_cycle;Max_cycle;Signal;HPM_P1;HPM_P2
2022/11/29 00:00:32;;;;;;;5.68;5.18;;;;;;;;;;5003024;28;20034;-43
2022/11/29 00:02:58;;;;;;;6.50;5.90;;;;;;;;;;5005823;28;20030;-46
2022/11/29 00:05:23;;;;;;;8.73;5.57;;;;;;;;;;5022454;28;20104;-46
2022/11/29 00:07:49;;;;;;;9.55;5.22;;;;;;;;;;5025135;28;20500;-46
2022/11/29 00:10:14;;;;;;;8.10;6.20;;;;;;;;;;5024682;28;20069;-43
2022/11/29 00:12:39;;;;;;;7.18;5.50;;;;;;;;;;5024784;28;20030;-43
2022/11/29 00:15:05;;;;;;;6.85;6.07;;;;;;;;;;5007051;28;20044;-43
2022/11/29 00:17:30;;;;;;;7.28;5.80;;;;;;;;;;5005218;28;20560;-43
2022/11/29 00:19:56;;;;;;;7.53;6.55;;;;;;;;;;5021058;28;20037;-45
2022/11/29 00:22:23;;;;;;;11.90;8.07;;;;;;;;;;5028467;28;20045;-44
2022/11/29 00:24:49;;;;;;;9.25;6.82;;;;;;;;;;5025346;28;20101;-43
2022/11/29 00:27:15;;;;;;;8.45;6.45;;;;;;;;;;5028113;28;20048;-45
2022/11/29 00:29:40;;;;;;;11.13;6.90;;;;;;;;;;5026676;28;20038;-44
2022/11/29 00:32:05;;;;;;;13.88;8.13;;;;;;;;;;5027842;28;20034;-45
2022/11/29 00:34:31;;;;;;;11.23;7.45;;;;;;;;;;5027222;28;20033;-49
2022/11/29 00:36:56;;;;;;;14.60;9.63;;;;;;;;;;5028057;28;20117;-43
2022/11/29 00:39:22;;;;;;;11.98;8.48;;;;;;;;;;5027310;28;20045;-45
2022/11/29 00:41:47;;;;;;;13.27;8.10;;;;;;;;;;5028400;28;20037;-43
2022/11/29 00:44:13;;;;;;;9.85;7.50;;;;;;;;;;5024540;28;20037;-44
2022/11/29 00:46:38;;;;;;;9.73;5.88;;;;;;;;;;5026351;28;20094;-45
2022/11/29 00:49:04;;;;;;;12.65;6.53;;;;;;;;;;5026698;28;20056;-44
2022/11/29 00:51:30;;;;;;;6.18;5.57;;;;;;;;;;5026668;28;20092;-43
2022/11/29 00:53:55;;;;;;;6.78;6.07;;;;;;;;;;5028045;28;20065;-44
2022/11/29 00:56:21;;;;;;;16.20;9.80;;;;;;;;;;5027482;28;20107;-44
2022/11/29 00:58:48;;;;;;;6.22;5.60;;;;;;;;;;5027846;28;20041;-43
2022/11/29 01:01:14;;;;;;;10.30;5.82;;;;;;;;;;5027365;28;20032;-43
2022/11/29 01:03:39;;;;;;;7.13;4.95;;;;;;;;;;5027786;28;20038;-43
2022/11/29 01:06:08;;;;;;;8.45;5.28;;;;;;;;;;5026563;28;20473;-44
2022/11/29 01:08:34;;;;;;;8.00;4.85;;;;;;;;;;5026062;28;20041;-43
2022/11/29 01:11:07;;;;;;;5.57;4.72;;;;;;;;;;5028574;28;20047;-44
2022/11/29 01:13:34;;;;;;;7.70;5.85;;;;;;;;;;5024827;28;20037;-43
2022/11/29 01:15:59;;;;;;;6.85;4.50;;;;;;;;;;5025869;28;20108;-44
2022/11/29 01:18:25;;;;;;;9.13;5.05;;;;;;;;;;5026054;28;20113;-43
2022/11/29 01:21:06;;;;;;;8.90;5.57;;;;;;;;;;5027751;28;20029;-43
2022/11/29 01:23:33;;;;;;;5.13;3.90;;;;;;;;;;5028027;28;20042;-44
2022/11/29 01:26:01;;;;;;;7.03;4.20;;;;;;;;;;5026235;28;20033;-47
2022/11/29 01:28:27;;;;;;;9.38;4.25;;;;;;;;;;5029010;28;20128;-44
2022/11/29 01:30:52;;;;;;;5.30;4.38;;;;;;;;;;5027626;28;20545;-43
2022/11/29 01:33:18;;;;;;;4.82;4.32;;;;;;;;;;5025589;28;20112;-46
2022/11/29 01:35:52;;;;;;;6.05;4.53;;;;;;;;;;5026648;28;20415;-43
2022/11/29 01:38:18;;;;;;;5.32;4.82;;;;;;;;;;5028564;28;20386;-43
2022/11/29 01:40:44;;;;;;;5.72;4.40;;;;;;;;;;5026329;28;20104;-44
2022/11/29 01:43:17;;;;;;;4.30;3.97;;;;;;;;;;5027594;28;20441;-43
2022/11/29 01:45:42;;;;;;;;;;;;;;;;;;5025249;28;20070;-44
2022/11/29 01:48:09;;;;;;;5.50;4.43;;;;;;;;;;5024898;28;19924;-44
2022/11/29 01:50:37;;;;;;;5.35;4.57;;;;;;;;;;5025890;28;20034;-43
2022/11/29 01:53:03;;;;;;;7.05;5.18;;;;;;;;;;5024154;28;20032;-43
2022/11/29 01:55:29;;;;;;;8.00;4.90;;;;;;;;;;5024804;28;20045;-43
2022/11/29 01:57:54;;;;;;;10.00;5.32;;;;;;;;;;5027082;28;20381;-43
2022/11/29 02:00:20;;;;;;;6.18;5.00;;;;;;;;;;5020736;28;20053;-43
2022/11/29 02:02:57;;;;;;;5.07;4.10;;;;;;;;;;5025496;28;21781;-43
2022/11/29 02:05:24;;;;;;;7.22;4.53;;;;;;;;;;5024299;28;20038;-43
2022/11/29 02:07:52;;;;;;;12.05;7.10;;;;;;;;;;5025896;28;20041;-43
2022/11/29 02:10:18;;;;;;;6.20;5.40;;;;;;;;;;5024595;28;20037;-44
2022/11/29 02:12:46;;;;;;;6.75;4.82;;;;;;;;;;5026524;28;20029;-47
2022/11/29 02:15:37;;;;;;;5.22;4.70;;;;;;;;;;5020941;28;20045;-44
2022/11/29 02:18:07;;;;;;;4.65;4.22;;;;;;;;;;5024615;28;20048;-43
2022/11/29 02:20:51;;;;;;;5.50;4.25;;;;;;;;;;5007239;28;20081;-43
2022/11/29 02:23:45;;;;;;;5.25;4.43;;;;;;;;;;5004677;28;20080;-45
2022/11/29 02:26:47;;;;;;;4.57;4.13;;;;;;;;;;5026464;28;20059;-43
2022/11/29 02:29:39;;;;;;;4.95;4.35;;;;;;;;;;5023838;28;20049;-43
2022/11/29 02:32:29;;;;;;;5.35;4.72;;;;;;;;;;5019802;28;20045;-43
2022/11/29 02:35:32;;;;;;;6.10;5.22;;;;;;;;;;5024012;28;20128;-44
2022/11/29 02:38:19;;;;;;;6.00;5.32;;;;;;;;;;5023800;28;20486;-43
2022/11/29 02:41:22;;;;;;;8.38;6.13;;;;;;;;;;5025253;28;20041;-46
2022/11/29 02:43:47;;;;;;;;;;;;;;;;;;4979090;28;20046;-44
2022/11/29 02:46:31;;;;;;;5.90;5.28;;;;;;;;;;4985476;28;19967;-44
2022/11/29 02:49:15;;;;;;;8.13;5.50;;;;;;;;;;4984765;28;20073;-48
2022/11/29 02:51:56;;;;;;;6.68;5.15;;;;;;;;;;4979067;28;20078;-43
2022/11/29 02:54:37;;;;;;;7.07;4.97;;;;;;;;;;4967115;28;20170;-45
2022/11/29 02:57:36;;;;;;;8.70;5.03;;;;;;;;;;4961499;28;20210;-43
2022/11/29 03:00:08;;;;;;;6.45;5.50;;;;;;;;;;4973417;28;20047;-47
2022/11/29 03:02:37;;;;;;;9.57;6.28;;;;;;;;;;4984948;28;20042;-44
2022/11/29 03:05:05;;;;;;;11.18;6.50;;;;;;;;;;4985148;28;20467;-44
2022/11/29 03:08:10;;;;;;;6.22;5.55;;;;;;;;;;4981543;28;20038;-43
2022/11/29 03:10:44;;;;;;;7.05;6.18;;;;;;;;;;4968084;28;20438;-43
2022/11/29 03:13:21;;;;;;;28.10;11.10;;;;;;;;;;4964931;28;20090;-43
2022/11/29 03:16:33;;;;;;;11.82;6.30;;;;;;;;;;4984574;28;20046;-45
2022/11/29 03:18:59;;;;;;;5.20;4.70;;;;;;;;;;4880862;29;20117;-45
2022/11/29 03:21:45;;;;;;;7.60;4.70;;;;;;;;;;4900691;29;20068;-46
2022/11/29 03:24:29;;;;;;;6.88;4.35;;;;;;;;;;4909144;28;20044;-46
2022/11/29 03:27:00;;;;;;;5.20;4.70;;;;;;;;;;4907271;29;20044;-44
2022/11/29 03:29:32;;;;;;;4.65;4.25;;;;;;;;;;4905016;29;20155;-46
2022/11/29 03:32:00;;;;;;;10.63;4.97;;;;;;;;;;4908302;29;20126;-44
2022/11/29 03:34:37;;;;;;;5.25;4.45;;;;;;;;;;4908921;29;20187;-46
2022/11/29 03:37:13;;;;;;;7.07;4.60;;;;;;;;;;4907957;29;20341;-44
2022/11/29 03:39:57;;;;;;;5.28;4.60;;;;;;;;;;4920455;29;20056;-44
2022/11/29 03:42:33;;;;;;;7.50;5.13;;;;;;;;;;4926050;29;20055;-42
2022/11/29 03:45:16;;;;;;;5.30;4.85;;;;;;;;;;4907531;29;20398;-48
2022/11/29 03:47:52;;;;;;;6.72;4.88;;;;;;;;;;4906081;29;20051;-44
2022/11/29 03:50:23;;;;;;;6.57;4.70;;;;;;;;;;4907647;29;20036;-41
2022/11/29 03:53:07;;;;;;;7.53;4.90;;;;;;;;;;4908737;29;20089;-43
2022/11/29 03:55:49;;;;;;;7.22;4.97;;;;;;;;;;4959796;28;20502;-44
2022/11/29 03:58:45;;;;;;;6.68;4.93;;;;;;;;;;5004740;28;20068;-43
2022/11/29 04:01:47;;;;;;;5.72;4.00;;;;;;;;;;5001443;28;20494;-44
2022/11/29 04:04:43;;;;;;;6.85;4.13;;;;;;;;;;5003794;28;20137;-43
2022/11/29 04:07:42;;;;;;;4.53;4.03;;;;;;;;;;5001597;28;20034;-43
2022/11/29 04:10:35;;;;;;;4.35;4.03;;;;;;;;;;5001874;28;20069;-43
2022/11/29 04:13:12;;;;;;;5.55;3.60;;;;;;;;;;5003648;28;20056;-44
2022/11/29 04:15:51;;;;;;;11.05;7.15;;;;;;;;;;5003365;28;20534;-44
2022/11/29 04:18:31;;;;;;;7.22;6.53;;;;;;;;;;5001962;28;20029;-43
2022/11/29 04:21:05;;;;;;;9.30;6.93;;;;;;;;;;5024618;28;20120;-43
2022/11/29 04:24:06;;;;;;;7.10;6.40;;;;;;;;;;5025559;28;20059;-43
2022/11/29 04:26:46;;;;;;;6.93;6.07;;;;;;;;;;4942085;28;20512;-44
2022/11/29 04:29:24;;;;;;;8.65;6.95;;;;;;;;;;4946340;28;20047;-43
2022/11/29 04:31:55;;;;;;;17.15;7.60;;;;;;;;;;4946625;28;20046;-43
2022/11/29 04:34:56;;;;;;;10.80;7.73;;;;;;;;;;4945305;29;20464;-43
2022/11/29 04:37:51;;;;;;;8.25;7.43;;;;;;;;;;4905276;29;20463;-44
2022/11/29 04:40:43;;;;;;;8.50;7.60;;;;;;;;;;4909291;29;20140;-42
2022/11/29 04:43:18;;;;;;;;;;;;;;;;;;4906004;29;20127;-41
2022/11/29 04:46:01;;;;;;;10.18;8.13;;;;;;;;;;4907195;29;20272;-43
2022/11/29 04:48:49;;;;;;;8.82;7.93;;;;;;;;;;4905151;29;20044;-48
2022/11/29 04:51:27;;;;;;;9.90;8.30;;;;;;;;;;4903923;29;20040;-46
2022/11/29 04:53:52;;;;;;;8.60;7.70;;;;;;;;;;4906988;29;20039;-44
2022/11/29 04:56:36;;;;;;;10.95;9.20;;;;;;;;;;4907383;29;20040;-44
2022/11/29 04:59:25;;;;;;;15.13;8.20;;;;;;;;;;4906261;29;20040;-43
2022/11/29 05:02:11;;;;;;;9.38;7.82;;;;;;;;;;4906298;29;20100;-43
2022/11/29 05:04:52;;;;;;;8.60;7.70;;;;;;;;;;4993023;28;20526;-43
2022/11/29 05:07:45;;;;;;;8.63;7.75;;;;;;;;;;4995787;28;20120;-43
2022/11/29 05:10:47;;;;;;;8.80;7.90;;;;;;;;;;5002468;28;20042;-45
2022/11/29 05:13:44;;;;;;;8.77;7.97;;;;;;;;;;5007630;28;20042;-42
2022/11/29 05:16:40;;;;;;;8.32;6.63;;;;;;;;;;5007737;28;20038;-44
2022/11/29 05:19:37;;;;;;;8.00;7.20;;;;;;;;;;5007244;28;20063;-45
2022/11/29 05:22:36;;;;;;;9.98;8.60;;;;;;;;;;5011855;28;20053;-43
2022/11/29 05:25:33;;;;;;;9.75;8.50;;;;;;;;;;5004683;28;20046;-48
2022/11/29 05:28:26;;;;;;;13.30;7.30;;;;;;;;;;4999662;28;20033;-46
2022/11/29 05:31:30;;;;;;;10.60;7.00;;;;;;;;;;5019725;28;20068;-44
2022/11/29 05:34:14;;;;;;;9.95;7.70;;;;;;;;;;5015846;28;20124;-44
2022/11/29 05:36:48;;;;;;;8.07;7.15;;;;;;;;;;5023676;28;20022;-43
2022/11/29 05:39:48;;;;;;;9.88;7.25;;;;;;;;;;5021782;28;20038;-44
2022/11/29 05:42:28;;;;;;;10.05;7.32;;;;;;;;;;5022905;28;20045;-43
2022/11/29 05:45:02;;;;;;;10.40;7.50;;;;;;;;;;5025998;28;20045;-46
2022/11/29 05:47:39;;;;;;;9.05;7.65;;;;;;;;;;5021661;28;20026;-43
2022/11/29 05:50:22;;;;;;;12.73;8.32;;;;;;;;;;5029606;28;20547;-45
2022/11/29 05:53:00;;;;;;;11.02;8.07;;;;;;;;;;5026908;28;20541;-43
2022/11/29 05:55:41;;;;;;;10.18;7.78;;;;;;;;;;5024630;28;20053;-45
2022/11/29 05:58:27;;;;;;;8.15;7.28;;;;;;;;;;5023191;28;20038;-44
2022/11/29 06:01:02;;;;;;;9.95;7.07;;;;;;;;;;5005665;28;20050;-46
2022/11/29 06:03:58;;;;;;;11.75;7.18;;;;;;;;;;5008791;28;20046;-44
2022/11/29 06:06:31;;;;;;;7.20;6.50;;;;;;;;;;5018092;28;20414;-46
2022/11/29 06:09:13;;;;;;;8.90;6.32;;;;;;;;;;5019574;28;20136;-44
2022/11/29 06:11:47;;;;;;;9.50;6.47;;;;;;;;;;5020923;28;20100;-44
2022/11/29 06:14:12;;;;;;;11.52;6.60;;;;;;;;;;5019561;28;20390;-44
2022/11/29 06:17:01;;;;;;;8.10;6.55;;;;;;;;;;5012802;28;20030;-44
2022/11/29 06:19:37;;;;;;;9.93;6.45;;;;;;;;;;5015614;28;20034;-44
2022/11/29 06:22:38;;;;;;;9.18;6.75;;;;;;;;;;5018601;28;20509;-47
2022/11/29 06:25:18;;;;;;;7.00;6.30;;;;;;;;;;5018835;28;20607;-43
2022/11/29 06:28:15;;;;;;;8.70;6.53;;;;;;;;;;5014490;28;20033;-44
2022/11/29 06:30:44;;;;;;;8.90;6.75;;;;;;;;;;5010358;28;20037;-43
2022/11/29 06:33:21;;;;;;;6.70;5.57;;;;;;;;;;5010709;28;20025;-44
2022/11/29 06:36:07;;;;;;;7.35;5.93;;;;;;;;;;5021527;28;20029;-43
2022/11/29 06:38:32;;;;;;;8.10;6.22;;;;;;;;;;5021979;28;21060;-43
2022/11/29 06:40:58;;;;;;;7.07;5.93;;;;;;;;;;5021312;28;20040;-44
2022/11/29 06:43:25;;;;;;;6.45;5.57;;;;;;;;;;5022493;28;20109;-45
2022/11/29 06:45:54;;;;;;;6.32;5.45;;;;;;;;;;5021995;28;20040;-46
2022/11/29 06:48:26;;;;;;;6.38;5.47;;;;;;;;;;5011776;28;20958;-44
2022/11/29 06:51:34;;;;;;;8.00;5.88;;;;;;;;;;4991995;28;20082;-45
2022/11/29 06:54:22;;;;;;;9.18;5.57;;;;;;;;;;4994062;28;20049;-44
2022/11/29 06:57:06;;;;;;;5.57;5.03;;;;;;;;;;4992946;28;20123;-43
2022/11/29 06:59:46;;;;;;;6.78;6.05;;;;;;;;;;5007547;28;20042;-44
2022/11/29 07:02:50;;;;;;;7.55;5.20;;;;;;;;;;5015332;28;20541;-44
2022/11/29 07:05:28;;;;;;;6.25;5.15;;;;;;;;;;5012386;28;20670;-46
2022/11/29 07:07:56;;;;;;;6.35;5.45;;;;;;;;;;5016065;28;20086;-46
2022/11/29 07:10:22;;;;;;;6.82;5.53;;;;;;;;;;5004364;28;20034;-46
2022/11/29 07:12:49;;;;;;;8.15;5.57;;;;;;;;;;5002164;28;20060;-44
2022/11/29 07:15:20;;;;;;;9.80;6.32;;;;;;;;;;5019652;28;20030;-43
2022/11/29 07:18:06;;;;;;;8.27;6.53;;;;;;;;;;5024855;28;20092;-44
2022/11/29 07:20:46;;;;;;;9.15;6.40;;;;;;;;;;5005570;28;20429;-44
2022/11/29 07:23:23;;;;;;;6.68;5.82;;;;;;;;;;5000592;28;20137;-44
2022/11/29 07:26:15;;;;;;;3.97;3.60;;;;;;;;;;5025581;28;20192;-44
2022/11/29 07:28:49;;;;;;;4.97;4.00;;;;;;;;;;5011876;28;20041;-49
2022/11/29 07:31:37;;;;;;;5.35;3.53;;;;;;;;;;5019327;28;20064;-46
2022/11/29 07:34:26;;;;;;;3.60;3.17;;;;;;;;;;5022922;28;20140;-44
2022/11/29 07:36:57;;;;;;;5.30;3.28;;;;;;;;;;5022239;28;20040;-44
2022/11/29 07:40:02;;;;;;;5.60;3.45;;;;;;;;;;5022086;28;20034;-44
2022/11/29 07:42:49;;;;;;;4.80;3.00;;;;;;;;;;5015203;28;20067;-44
2022/11/29 07:45:30;;;;;;;4.20;3.08;;;;;;;;;;5019429;28;20037;-44
2022/11/29 07:47:56;;;;;;;4.00;3.17;;;;;;;;;;5020130;28;20092;-44
2022/11/29 07:50:24;;;;;;;5.07;3.00;;;;;;;;;;5020737;28;20041;-44
2022/11/29 07:52:50;;;;;;;6.78;3.00;;;;;;;;;;5026978;28;20486;-44
2022/11/29 07:55:18;;;;;;;3.53;3.05;;;;;;;;;;5023596;28;20088;-47
2022/11/29 07:57:43;;;;;;;3.47;2.95;;;;;;;;;;5026204;28;20029;-45
2022/11/29 08:00:09;;;;;;;3.05;2.78;;;;;;;;;;5023992;28;20037;-44
2022/11/29 08:02:35;;;;;;;5.40;3.08;;;;;;;;;;5024653;28;20028;-45
2022/11/29 08:05:01;;;;;;;6.43;3.10;;;;;;;;;;5025347;28;21289;-49
2022/11/29 08:07:26;;;;;;;4.15;2.92;;;;;;;;;;5025387;28;20025;-44
2022/11/29 08:09:52;;;;;;;5.05;2.72;;;;;;;;;;5024839;28;20141;-44
2022/11/29 08:12:17;;;;;;;4.43;3.15;;;;;;;;;;5024907;28;20018;-43
2022/11/29 08:14:43;;;;;;;5.95;3.65;;;;;;;;;;5024852;28;20048;-44
2022/11/29 08:17:08;;;;;;;3.78;3.15;;;;;;;;;;5026342;28;20022;-47
2022/11/29 08:19:34;;;;;;;4.30;3.30;;;;;;;;;;5024091;28;20092;-45
2022/11/29 08:21:59;;;;;;;4.13;2.63;;;;;;;;;;5025318;28;20413;-46
2022/11/29 08:24:25;;;;;;;2.90;1.70;;;;;;;;;;5022867;28;20065;-45
2022/11/29 08:26:51;;;;;;;4.93;1.50;;;;;;;;;;5025246;28;20034;-46
2022/11/29 08:29:16;;;;;;;1.58;1.30;;;;;;;;;;5022217;28;20099;-44
2022/11/29 08:31:42;;;;;;;1.63;1.50;;;;;;;;;;5023794;28;20030;-44
2022/11/29 08:34:09;;;;;;;1.48;1.38;;;;;;;;;;5022642;28;20038;-44
2022/11/29 08:36:35;;;;;;;2.70;1.25;;;;;;;;;;5024278;28;20025;-48
2022/11/29 08:39:01;;;;;;;2.13;1.20;;;;;;;;;;5024268;28;20087;-48
2022/11/29 08:41:28;;;;;;;3.20;1.30;;;;;;;;;;5027830;28;20548;-46
2022/11/29 08:43:53;;;;;;;1.58;1.38;;;;;;;;;;5028145;28;20045;-48
2022/11/29 08:46:19;;;;;;;2.42;1.10;;;;;;;;;;5026860;28;20052;-44
2022/11/29 08:48:46;;;;;;;2.58;1.23;;;;;;;;;;5028246;28;20048;-44
2022/11/29 08:51:11;;;;;;;1.95;1.35;;;;;;;;;;5027470;28;20048;-45
2022/11/29 08:53:44;;;;;;;1.50;1.38;;;;;;;;;;5027241;28;20045;-43
2022/11/29 08:56:17;;;;;;;1.60;1.50;;;;;;;;;;5030529;28;20089;-47
2022/11/29 08:58:43;;;;;;;1.55;1.33;;;;;;;;;;5025873;28;20144;-44
2022/11/29 09:01:16;;;;;;;5.07;1.10;;;;;;;;;;5027721;28;20033;-45
2022/11/29 09:06:36;;;;;;;0.80;0.80;;;;;;;;;;5028249;28;20441;-44
2022/11/29 09:09:02;;;;;;;5.53;1.10;;;;;;;;;;5026421;28;20060;-46
2022/11/29 09:11:28;;;;;;;3.28;1.50;;;;;;;;;;5029692;28;20112;-44
2022/11/29 09:13:58;;;;;;;1.63;0.70;;;;;;;;;;5027192;28;20053;-45
2022/11/29 09:16:25;;;;;;;0.90;0.90;;;;;;;;;;5026417;28;20034;-47
2022/11/29 09:18:54;;;;;;;2.45;0.88;;;;;;;;;;5027483;28;20049;-44
2022/11/29 09:21:20;;;;;;;0.77;0.77;;;;;;;;;;5026062;28;20028;-47
2022/11/29 09:23:45;;;;;;;0.50;0.50;;;;;;;;;;5028503;28;20042;-46
2022/11/29 09:26:16;;;;;;;1.35;0.80;;;;;;;;;;5028329;28;20049;-45
2022/11/29 09:28:42;;;;;;;1.15;1.02;;;;;;;;;;5027496;28;20041;-44
2022/11/29 09:31:10;;;;;;;1.65;0.40;;;;;;;;;;5028792;28;20108;-44
2022/11/29 09:33:35;;;;;;;0.40;0.40;;;;;;;;;;5026874;28;20704;-46
2022/11/29 09:36:02;;;;;;;0.60;0.60;;;;;;;;;;5028374;28;20060;-44
2022/11/29 09:38:28;;;;;;;2.38;0.80;;;;;;;;;;5026861;28;20053;-47
2022/11/29 09:40:55;;;;;;;4.82;0.50;;;;;;;;;;5008056;28;20030;-47
2022/11/29 09:43:33;;;;;;;0.40;0.40;;;;;;;;;;5006475;28;20030;-44
2022/11/29 09:46:05;;;;;;;0.50;0.50;;;;;;;;;;5026561;28;20769;-44
2022/11/29 09:48:49;;;;;;;0.57;0.57;;;;;;;;;;5023130;28;20046;-44
2022/11/29 09:51:49;;;;;;;0.98;0.70;;;;;;;;;;5010099;28;20117;-44
2022/11/29 09:54:33;;;;;;;0.60;0.60;;;;;;;;;;5012454;28;20049;-45
2022/11/29 09:56:58;;;;;;;2.33;0.65;;;;;;;;;;5025798;28;20059;-43
2022/11/29 09:59:44;;;;;;;9.35;0.65;;;;;;;;;;5022899;28;20128;-47
2022/11/29 10:02:44;;;;;;;1.35;0.93;;;;;;;;;;5021707;28;20032;-43
2022/11/29 10:05:18;;;;;;;3.60;2.45;;;;;;;;;;5025722;28;20049;-43
2022/11/29 10:07:55;;;;;;;2.25;2.05;;;;;;;;;;5025317;28;20035;-44
2022/11/29 10:10:42;;;;;;;3.15;2.35;;;;;;;;;;5024558;28;20490;-45
2022/11/29 10:13:10;;;;;;;1.67;1.40;;;;;;;;;;5025713;28;20034;-44
2022/11/29 10:15:40;;;;;;;4.45;3.05;;;;;;;;;;5023492;28;20068;-47
2022/11/29 10:18:34;;;;;;;23.85;15.23;;;;;;;;;;5027541;28;20033;-44
2022/11/29 10:21:09;;;;;;;4.30;3.00;;;;;;;;;;5023939;28;20046;-44
2022/11/29 10:23:45;;;;;;;79.95;45.40;;;;;;;;;;5018721;28;20379;-44
2022/11/29 10:26:12;;;;;;;21.50;14.07;;;;;;;;;;4998290;28;20100;-44
2022/11/29 10:28:43;;;;;;;15.00;9.40;;;;;;;;;;5010439;28;20043;-44
2022/11/29 10:31:22;;;;;;;8.48;5.57;;;;;;;;;;5027409;28;20021;-44
2022/11/29 10:33:48;;;;;;;11.63;7.95;;;;;;;;;;5025728;28;20176;-45
2022/11/29 10:36:32;;;;;;;23.67;16.52;;;;;;;;;;5027410;28;20895;-44
2022/11/29 10:39:02;;;;;;;15.10;10.65;;;;;;;;;;5022041;28;20049;-45
2022/11/29 10:41:28;;;;;;;8.90;5.82;;;;;;;;;;5026389;28;20045;-44
2022/11/29 10:43:56;;;;;;;1.90;1.67;;;;;;;;;;5025826;28;20963;-44
2022/11/29 10:46:33;;;;;;;12.88;7.30;;;;;;;;;;5023342;28;21650;-46
2022/11/29 10:49:03;;;;;;;13.30;8.73;;;;;;;;;;5023489;28;20169;-46
2022/11/29 10:51:29;;;;;;;25.98;17.08;;;;;;;;;;5023097;28;20025;-44
2022/11/29 10:53:54;;;;;;;9.05;6.47;;;;;;;;;;5026251;28;20736;-44
2022/11/29 10:56:34;;;;;;;22.98;14.40;;;;;;;;;;5047834;28;20069;-46
2022/11/29 10:59:04;;;;;;;14.60;10.65;;;;;;;;;;5024929;28;20033;-45
2022/11/29 11:01:32;;;;;;;34.55;19.40;;;;;;;;;;5023210;28;20033;-47
2022/11/29 11:03:59;;;;;;;13.20;9.65;;;;;;;;;;5018719;28;20073;-44
2022/11/29 11:06:48;;;;;;;18.23;12.27;;;;;;;;;;5003805;28;20480;-44
2022/11/29 11:09:25;;;;;;;5.95;5.32;;;;;;;;;;5005370;28;20047;-45
2022/11/29 11:11:53;;;;;;;8.93;5.28;;;;;;;;;;5011624;28;20034;-45
2022/11/29 11:14:28;;;;;;;16.10;10.38;;;;;;;;;;5018362;28;20486;-47
2022/11/29 11:16:54;;;;;;;2.25;1.95;;;;;;;;;;5021942;28;20044;-44
2022/11/29 11:19:26;;;;;;;25.55;16.25;;;;;;;;;;5024422;28;20041;-44
2022/11/29 11:21:52;;;;;;;;;;;;;;;;;;5026070;28;20033;-44
2022/11/29 11:24:43;;;;;;;5.38;3.72;;;;;;;;;;5022080;28;19925;-45
2022/11/29 11:27:08;;;;;;;6.18;4.68;;;;;;;;;;5022138;28;20037;-45
2022/11/29 11:29:41;;;;;;;3.88;3.40;;;;;;;;;;5021359;28;20048;-44
2022/11/29 11:32:13;;;;;;;;;;;;;;;;;;5024771;28;20045;-44
2022/11/29 11:34:50;;;;;;;6.55;4.88;;;;;;;;;;5025053;28;19977;-44
2022/11/29 11:37:31;;;;;;;53.20;35.00;;;;;;;;;;5027059;28;20022;-45
2022/11/29 11:40:28;;;;;;;14.40;13.07;;;;;;;;;;5024542;28;20061;-46
2022/11/29 11:42:57;;;;;;;3.25;1.80;;;;;;;;;;5025218;28;20040;-44
2022/11/29 11:45:32;;;;;;;3.95;3.63;;;;;;;;;;5026300;28;20040;-44
2022/11/29 11:48:02;;;;;;;2.95;2.42;;;;;;;;;;5023715;28;20520;-44
2022/11/29 11:50:43;;;;;;;1.30;1.20;;;;;;;;;;5021682;28;20041;-44
2022/11/29 11:53:26;;;;;;;11.55;5.63;;;;;;;;;;5025973;28;20383;-44
2022/11/29 11:56:02;;;;;;;2.55;2.00;;;;;;;;;;5025005;28;20551;-44
2022/11/29 11:58:31;;;;;;;2.22;1.77;;;;;;;;;;5025522;28;20057;-45
2022/11/29 12:00:59;;;;;;;6.47;3.60;;;;;;;;;;5023796;28;20024;-44
2022/11/29 12:03:27;;;;;;;11.45;5.90;;;;;;;;;;5023487;28;20647;-44
2022/11/29 12:05:58;;;;;;;1.60;1.50;;;;;;;;;;5018838;28;20029;-47
2022/11/29 12:08:26;;;;;;;4.75;3.00;;;;;;;;;;5016909;28;20030;-44
2022/11/29 12:10:57;;;;;;;1.38;1.27;;;;;;;;;;5005935;28;20437;-44
2022/11/29 12:13:27;;;;;;;16.58;8.02;;;;;;;;;;5005478;28;20083;-50
2022/11/29 12:15:55;;;;;;;5.50;3.00;;;;;;;;;;5022463;28;20114;-44
2022/11/29 12:18:41;;;;;;;3.80;2.40;;;;;;;;;;5028593;28;20056;-46
2022/11/29 12:21:10;;;;;;;0.65;0.57;;;;;;;;;;5029601;28;20034;-44
2022/11/29 12:23:45;;;;;;;9.63;6.15;;;;;;;;;;5022384;28;20044;-45
2022/11/29 12:26:28;;;;;;;1.38;1.27;;;;;;;;;;5007402;28;20025;-46
2022/11/29 12:28:53;;;;;;;13.23;7.22;;;;;;;;;;5011200;28;20045;-43
2022/11/29 12:31:37;;;;;;;44.10;29.38;;;;;;;;;;5030818;28;20033;-47
2022/11/29 12:34:31;;;;;;;15.13;10.18;;;;;;;;;;5027854;28;20045;-45
2022/11/29 12:37:14;;;;;;;6.15;4.05;;;;;;;;;;5027336;28;20029;-44
2022/11/29 12:39:45;;;;;;;1.10;0.98;;;;;;;;;;5027989;28;20040;-45
2022/11/29 12:42:35;;;;;;;7.30;4.85;;;;;;;;;;5029015;28;20033;-43
2022/11/29 12:45:28;;;;;;;9.57;6.55;;;;;;;;;;5026727;28;20494;-46
2022/11/29 12:47:54;;;;;;;7.15;5.10;;;;;;;;;;5025288;28;20042;-44
2022/11/29 12:50:34;;;;;;;21.63;11.43;;;;;;;;;;5007400;28;20041;-44
2022/11/29 12:53:02;;;;;;;7.60;4.35;;;;;;;;;;5003892;28;20528;-44
2022/11/29 12:55:42;;;;;;;33.75;15.68;;;;;;;;;;5003798;28;20598;-45
2022/11/29 12:58:23;;;;;;;9.07;5.07;;;;;;;;;;5004838;28;20046;-44
2022/11/29 13:01:26;;;;;;;3.42;3.03;;;;;;;;;;5025446;28;20037;-44
2022/11/29 13:04:09;;;;;;;15.90;6.20;;;;;;;;;;5022516;28;20433;-46
2022/11/29 13:06:47;;;;;;;13.98;6.07;;;;;;;;;;5025509;28;20029;-45
2022/11/29 13:09:38;;;;;;;5.80;2.92;;;;;;;;;;5022922;28;20170;-44
2022/11/29 13:12:15;;;;;;;9.55;5.32;;;;;;;;;;5029021;28;20037;-47
2022/11/29 13:14:51;;;;;;;17.08;12.90;;;;;;;;;;5026602;28;20115;-44
2022/11/29 13:18:07;;;;;;;55.70;36.92;;;;;;;;;;5026786;28;20036;-46
2022/11/29 13:20:41;;;;;;;26.50;16.67;;;;;;;;;;4977016;28;20133;-46
2022/11/29 13:23:17;;;;;;;16.33;11.70;;;;;;;;;;4977838;28;20117;-45
2022/11/29 13:25:45;;;;;;;12.05;7.05;;;;;;;;;;4973096;28;20629;-48
2022/11/29 13:28:24;;;;;;;9.85;6.55;;;;;;;;;;4976088;28;20042;-46
2022/11/29 13:30:51;;;;;;;18.05;12.65;;;;;;;;;;4973976;28;20126;-44
2022/11/29 13:33:30;;;;;;;10.05;7.97;;;;;;;;;;4963865;28;20932;-44
2022/11/29 13:36:04;;;;;;;3.70;2.83;;;;;;;;;;4951951;28;20035;-45
2022/11/29 13:38:42;;;;;;;9.18;7.88;;;;;;;;;;4953395;28;20073;-44
2022/11/29 13:41:26;;;;;;;4.45;3.33;;;;;;;;;;4954561;28;20423;-44
2022/11/29 13:44:07;;;;;;;3.70;3.40;;;;;;;;;;4955927;28;20472;-45
2022/11/29 13:46:42;;;;;;;4.70;2.85;;;;;;;;;;4961187;28;20050;-45
2022/11/29 13:49:21;;;;;;;18.23;11.10;;;;;;;;;;4958009;28;20172;-45
2022/11/29 13:51:46;;;;;;;4.18;3.00;;;;;;;;;;4950119;28;20122;-44
2022/11/29 13:54:30;;;;;;;5.88;4.97;;;;;;;;;;4971414;28;20038;-44
2022/11/29 13:57:07;;;;;;;3.85;2.33;;;;;;;;;;5009171;28;20038;-44
2022/11/29 13:59:36;;;;;;;3.40;2.10;;;;;;;;;;5005796;28;20046;-47
2022/11/29 14:02:02;;;;;;;1.23;1.10;;;;;;;;;;5004537;28;20100;-45
2022/11/29 14:04:33;;;;;;;2.95;1.58;;;;;;;;;;5016400;28;20133;-44
2022/11/29 14:07:17;;;;;;;2.78;2.30;;;;;;;;;;5025105;28;20026;-42
2022/11/29 14:10:07;;;;;;;5.88;1.92;;;;;;;;;;5025216;28;20107;-49
2022/11/29 14:12:42;;;;;;;3.35;2.13;;;;;;;;;;5026908;28;20030;-44
2022/11/29 14:15:35;;;;;;;1.30;1.20;;;;;;;;;;5020717;28;20041;-44
2022/11/29 14:18:07;;;;;;;1.70;1.48;;;;;;;;;;5025562;28;20124;-44
2022/11/29 14:20:38;;;;;;;1.63;0.98;;;;;;;;;;5026678;28;20600;-44
2022/11/29 14:23:03;;;;;;;1.70;1.23;;;;;;;;;;5025440;28;20033;-44
2022/11/29 14:25:30;;;;;;;3.17;1.50;;;;;;;;;;5027725;28;20045;-45
2022/11/29 14:27:59;;;;;;;2.42;1.17;;;;;;;;;;5024684;28;20028;-46
2022/11/29 14:30:41;;;;;;;1.35;1.02;;;;;;;;;;5023429;28;20156;-45
2022/11/29 14:33:12;;;;;;;2.03;1.40;;;;;;;;;;5025654;28;20469;-44
2022/11/29 14:36:17;;;;;;;1.23;1.13;;;;;;;;;;5014221;28;20033;-42
2022/11/29 14:39:20;;;;;;;3.22;1.60;;;;;;;;;;5020559;28;20037;-46
2022/11/29 14:41:54;;;;;;;;;;;;;;;;;;5021551;28;20086;-44
2022/11/29 14:44:27;;;;;;;3.33;1.50;;;;;;;;;;5022854;28;19921;-44
2022/11/29 14:47:19;;;;;;;1.30;1.20;;;;;;;;;;5024017;28;20050;-44
2022/11/29 14:49:45;;;;;;;1.50;1.20;;;;;;;;;;5016155;28;20042;-44
2022/11/29 14:52:13;;;;;;;2.40;1.38;;;;;;;;;;5023042;28;20068;-44
2022/11/29 14:54:54;;;;;;;2.10;1.40;;;;;;;;;;5024275;28;20128;-44
2022/11/29 14:57:45;;;;;;;4.00;1.15;;;;;;;;;;5024792;28;20049;-44
2022/11/29 15:00:19;;;;;;;1.45;1.35;;;;;;;;;;5013274;28;20073;-44
2022/11/29 15:03:04;;;;;;;1.65;0.90;;;;;;;;;;5026692;28;20382;-44
2022/11/29 15:05:34;;;;;;;0.80;0.80;;;;;;;;;;5022421;28;20052;-46
2022/11/29 15:08:05;;;;;;;1.83;1.20;;;;;;;;;;5021941;28;20029;-44
2022/11/29 15:10:36;;;;;;;1.27;1.08;;;;;;;;;;5024072;28;20033;-44
2022/11/29 15:13:02;;;;;;;1.80;1.25;;;;;;;;;;5026229;28;20029;-47
2022/11/29 15:15:56;;;;;;;2.03;1.38;;;;;;;;;;5022583;28;20045;-45
2022/11/29 15:18:34;;;;;;;2.92;1.10;;;;;;;;;;5024968;28;20021;-46
2022/11/29 15:21:27;;;;;;;1.67;1.58;;;;;;;;;;5020008;28;20505;-46
2022/11/29 15:24:01;;;;;;;1.17;1.17;;;;;;;;;;5023586;28;20041;-44
2022/11/29 15:26:26;;;;;;;2.45;1.25;;;;;;;;;;5025430;28;20075;-44
2022/11/29 15:28:52;;;;;;;1.50;1.40;;;;;;;;;;5019165;28;20038;-43
2022/11/29 15:31:19;;;;;;;2.47;1.45;;;;;;;;;;5020879;28;20033;-45
2022/11/29 15:33:47;;;;;;;2.03;1.58;;;;;;;;;;5026902;28;20041;-44
2022/11/29 15:36:19;;;;;;;1.63;1.35;;;;;;;;;;5026260;28;20522;-44